Ana Sayfa
METAR-TAF:

METAR-TAF

Havaalanları :

Air Force Base Overberg

Bredasdorp, Güney Afrika

Enlem: 34-33-17S, Boylam: 20-15-02E, yükseklik: 16 m

Güncel hava durumu gözlemi

Rapor saat 00:00 UTC de 45 dakika önce yapıldı.
Rüzgar güney/güneydoğudan 11 kt
Sıcaklık 17°C
Nem 88%
Basınç 1025 hPa

METAR: FAOB 280000Z AUTO 15011KT //// // ////// 17/15 Q1025

Saat: 02:45 (00:45 UTC)


TAF: eksik

4.000'den fazla havaalanı için hava durumu gözlemleri ve tahminleri (METAR ve TAF raporları).

Kullanılabilir istasyonlar harita üzerinde sarı ve kırmızı noktalarla gösterilir.

İstasyonun adını görmek için fareyi noktanın üzerinde gezdirin.

Sonrasında hava gözlem ve tahminlerini görmek için tıklayın.

Haritayı değiştirmek için: yaklaştırmak için siyah artı işaretli yeşil düğmeye ve uzaklaştırmak için de eksi işaretli düğmeye hızla tıklayın; bitişik haritalar için yeşil okları kullanın.


METAR-TAF: